Weather reports worldwide

Advertisment
Capdepera,Faro, Spain (8311): temperature & dewpoint: 16.09.2018 23:00:00 - 22.09.2018 23:00:00 (CEST)Capdepera,Faro, Spain (8311): wind speed & gusts: 16.09.2018 23:00:00 - 22.09.2018 23:00:00 (CEST)Capdepera,Faro, Spain (8311): wind direction: 16.09.2018 23:00:00 - 22.09.2018 23:00:00 (CEST)Capdepera,Faro, Spain (8311): precipitation: 16.09.2018 23:00:00 - 22.09.2018 23:00:00 (CEST)
Date & Time tt [°C] td [°C] ff [km/h] ff [kn] fx [km/h] fx [kn] dd rr [mm]
22.09.2018 23:00:00 23,8 20,7 9 5 14 8 W 0,0
22.09.2018 22:00:00 24,3 20,8 11 6 20 11 WSW 0,0
22.09.2018 21:00:00 24,9 21,2 19 10 35 19 WSW 0,0
22.09.2018 20:00:00 25,1 21,2 19 11 31 17 WSW -
22.09.2018 19:00:00 25,4 20,9 19 11 28 15 SW 0,0
22.09.2018 18:00:00 27,0 20,8 21 11 29 16 WSW 0,0
22.09.2018 17:00:00 28,1 20,4 21 11 26 14 W 0,0
22.09.2018 16:00:00 28,4 20,4 20 11 24 13 W 0,0
22.09.2018 15:00:00 28,0 19,8 12 7 18 10 W 0,0
22.09.2018 14:00:00 27,6 20,2 9 5 15 8 WNW -
22.09.2018 13:00:00 27,4 19,7 8 4 16 9 SE 0,0
22.09.2018 12:00:00 27,0 19,8 11 6 18 10 SE 0,0
22.09.2018 11:00:00 27,0 19,8 9 5 18 10 E 0,0
22.09.2018 10:00:00 26,2 19,3 14 8 23 13 ENE 0,0
22.09.2018 09:00:00 25,4 19,1 17 9 22 12 E 0,0
22.09.2018 08:00:00 24,8 19,4 13 7 22 12 E -
22.09.2018 07:00:00 24,6 19,4 16 9 23 12 NE 0,0
22.09.2018 06:00:00 24,6 20,7 16 9 21 12 NE 0,0
22.09.2018 05:00:00 24,5 20,6 14 8 20 11 NNE 0,0
22.09.2018 04:00:00 24,6 20,7 12 6 23 13 N 0,0
22.09.2018 03:00:00 24,8 21,5 20 11 27 15 N 0,0
22.09.2018 02:00:00 24,8 22,1 20 11 32 17 N -
22.09.2018 01:00:00 24,9 22,4 27 14 31 17 N 0,0
22.09.2018 00:00:00 25,0 23,0 19 11 29 15 N 0,0
21.09.2018 23:00:00 24,8 22,5 11 6 15 8 NNE 0,0
21.09.2018 22:00:00 24,6 22,1 3 1 11 6 N 0,0
21.09.2018 21:00:00 25,1 21,8 1 1 9 5 S 0,0
21.09.2018 20:00:00 25,3 21,4 4 2 14 7 S -
21.09.2018 19:00:00 25,7 21,1 7 4 14 7 WSW 0,0
21.09.2018 18:00:00 25,9 20,0 3 2 13 7 W 0,0
21.09.2018 17:00:00 27,5 19,8 10 6 14 8 NW 0,0
21.09.2018 16:00:00 27,4 19,5 6 4 14 8 WNW 0,0
21.09.2018 15:00:00 27,3 19,3 6 4 10 5 S 0,0
21.09.2018 14:00:00 28,0 20,1 4 2 13 7 SW -
21.09.2018 13:00:00 29,5 20,7 11 6 18 10 NW 0,0
21.09.2018 12:00:00 29,4 19,4 8 4 15 8 NNW 0,0
21.09.2018 11:00:00 28,5 20,5 11 6 16 9 NNW 0,0
21.09.2018 10:00:00 27,3 19,9 5 3 11 6 NW 0,0
21.09.2018 09:00:00 25,5 20,9 0 0 0 0 N 0,0
21.09.2018 08:00:00 23,3 21,0 3 2 11 6 W -
21.09.2018 07:00:00 22,7 20,4 9 5 11 6 W 0,0
21.09.2018 06:00:00 22,9 21,0 7 4 10 5 WNW 0,0
21.09.2018 05:00:00 22,8 20,7 10 5 17 9 NW 0,0
21.09.2018 04:00:00 23,1 21,0 11 6 14 8 NNW 0,0
21.09.2018 03:00:00 23,3 21,0 0 0 0 0 N 0,0
21.09.2018 02:00:00 23,5 20,7 0 0 0 0 N -
21.09.2018 01:00:00 23,4 20,5 0 0 9 5 N 0,0
21.09.2018 00:00:00 23,4 20,9 8 4 13 7 WNW 0,0
20.09.2018 23:00:00 23,4 20,3 11 6 14 8 WNW 0,0
20.09.2018 22:00:00 23,8 20,1 8 4 10 5 WNW 0,0
20.09.2018 21:00:00 24,4 20,7 8 5 21 11 NNW 0,0
20.09.2018 20:00:00 24,9 21,0 16 9 23 13 N -
20.09.2018 19:00:00 25,3 20,5 19 10 26 14 N 0,0
20.09.2018 18:00:00 26,4 20,5 21 12 27 15 N 0,0
20.09.2018 17:00:00 27,0 20,1 19 11 24 13 N 0,0
20.09.2018 16:00:00 28,0 20,3 19 10 25 13 N 0,0
20.09.2018 15:00:00 27,8 20,6 20 11 25 13 N 0,0
20.09.2018 14:00:00 27,9 19,7 16 9 24 13 N -
20.09.2018 13:00:00 28,8 21,1 18 10 27 15 N 0,0
20.09.2018 12:00:00 27,7 20,5 16 9 24 13 N 0,0
20.09.2018 11:00:00 26,6 20,5 16 9 26 14 N 0,0
20.09.2018 10:00:00 26,4 20,5 19 10 25 13 N 0,0
20.09.2018 09:00:00 25,0 20,5 18 10 25 14 N 0,0
20.09.2018 08:00:00 23,9 20,5 20 11 27 14 N -
20.09.2018 07:00:00 23,7 20,3 20 11 27 14 N 0,0
20.09.2018 06:00:00 23,7 20,3 21 11 28 15 N 0,0
20.09.2018 05:00:00 23,8 20,3 21 11 29 15 N 0,0
20.09.2018 04:00:00 23,8 20,3 24 13 29 16 N 0,0
20.09.2018 03:00:00 23,5 20,7 13 7 17 9 N 0,0
20.09.2018 02:00:00 23,6 20,7 10 5 16 9 N -
20.09.2018 01:00:00 23,8 20,5 10 5 20 11 N 0,0
20.09.2018 00:00:00 24,0 20,7 13 7 19 10 N 0,0
19.09.2018 23:00:00 24,1 20,7 14 8 20 11 N 0,0
19.09.2018 22:00:00 24,2 20,5 13 7 24 13 N 0,0
19.09.2018 21:00:00 24,3 21,1 16 9 21 11 N 0,0
19.09.2018 20:00:00 24,4 21,1 19 10 24 13 N -
19.09.2018 19:00:00 24,6 20,9 15 8 24 13 N 0,0
19.09.2018 18:00:00 25,6 21,1 15 8 22 12 N 0,0
19.09.2018 17:00:00 26,9 21,0 15 8 19 10 N 0,0
19.09.2018 16:00:00 25,2 20,0 0 0 13 7 N 0,0
19.09.2018 15:00:00 24,9 21,2 11 6 16 8 N 0,0
19.09.2018 14:00:00 26,3 19,9 0 0 13 7 N -
19.09.2018 13:00:00 25,7 19,3 4 2 23 12 NW 0,0
19.09.2018 12:00:00 23,9 19,4 11 6 35 19 SW 0,0
19.09.2018 11:00:00 26,7 22,3 14 8 17 9 N 0,0
19.09.2018 10:00:00 25,7 22,8 0 0 0 0 N 0,0
19.09.2018 09:00:00 24,4 22,4 0 0 0 0 N 0,0
19.09.2018 08:00:00 23,8 21,7 0 0 0 0 N -
19.09.2018 07:00:00 23,8 21,3 0 0 0 0 N 0,0
19.09.2018 06:00:00 23,8 21,1 0 0 0 0 N 0,0
19.09.2018 05:00:00 23,6 20,7 0 0 0 0 N 0,0
19.09.2018 04:00:00 23,9 20,7 0 0 0 0 N 0,0
19.09.2018 03:00:00 24,2 20,5 0 0 0 0 N 0,0
19.09.2018 02:00:00 24,2 20,3 0 0 0 0 N -
19.09.2018 01:00:00 24,2 20,1 0 0 0 0 N 0,0
19.09.2018 00:00:00 24,2 20,5 0 0 0 0 N 0,0
18.09.2018 23:00:00 24,0 20,3 0 0 0 0 N 0,0
18.09.2018 22:00:00 24,1 20,9 0 0 0 0 N 0,0
18.09.2018 21:00:00 24,4 20,9 0 0 13 7 N 0,0
18.09.2018 20:00:00 24,8 21,1 8 5 16 9 W -
18.09.2018 19:00:00 25,3 20,7 6 3 12 6 W 0,0
18.09.2018 18:00:00 26,3 21,7 4 2 9 5 NW 0,0
18.09.2018 17:00:00 26,0 23,7 0 0 10 5 N 0,2
18.09.2018 16:00:00 24,9 23,9 0 0 16 9 N 1,3
18.09.2018 15:00:00 25,0 21,9 15 8 24 13 NE 0,0
18.09.2018 14:00:00 27,3 21,8 16 8 21 11 N -
18.09.2018 13:00:00 26,8 21,6 16 9 27 15 N 0,0
18.09.2018 12:00:00 26,7 20,8 13 7 41 22 N 0,0
18.09.2018 11:00:00 26,2 19,6 24 13 36 20 N 0,0
18.09.2018 10:00:00 27,0 20,8 1 1 21 11 WNW 0,0
18.09.2018 09:00:00 24,5 21,0 15 8 21 11 WNW 0,0
18.09.2018 08:00:00 24,3 23,3 14 8 18 10 WNW -
18.09.2018 07:00:00 24,7 23,1 8 4 13 7 WNW 0,0
18.09.2018 06:00:00 24,7 22,6 9 5 17 9 WNW 0,0
18.09.2018 05:00:00 25,0 23,0 17 9 27 14 W 0,0
18.09.2018 04:00:00 25,1 23,3 19 11 24 13 W 0,0
18.09.2018 03:00:00 24,7 23,1 0 0 14 8 WSW 0,0
18.09.2018 02:00:00 24,7 23,1 3 1 17 9 W -
18.09.2018 01:00:00 24,9 23,2 8 4 12 7 WSW 0,0
18.09.2018 00:00:00 24,7 22,9 0 0 0 0 N 0,0
17.09.2018 23:00:00 24,8 22,9 0 0 0 0 N 0,0
17.09.2018 22:00:00 24,8 22,7 0 0 0 0 N 0,0
17.09.2018 21:00:00 25,0 22,7 0 0 12 6 N 0,0
17.09.2018 20:00:00 25,2 21,9 10 6 22 12 W -
17.09.2018 19:00:00 25,7 22,2 0 0 12 6 N 0,0
17.09.2018 18:00:00 25,5 23,2 6 4 37 20 S 0,1
17.09.2018 17:00:00 25,6 22,1 0 0 16 8 NNE 0,0
17.09.2018 16:00:00 26,6 22,0 13 7 21 11 N 0,0
17.09.2018 15:00:00 26,8 22,6 16 9 22 12 N 0,0
17.09.2018 14:00:00 26,8 22,2 17 9 24 13 NNE -
17.09.2018 13:00:00 26,4 21,8 16 9 20 11 NNE 0,0
17.09.2018 12:00:00 26,7 21,7 14 8 18 10 NE 0,0
17.09.2018 11:00:00 27,4 21,9 11 6 22 12 E 0,0
17.09.2018 10:00:00 25,7 22,0 18 10 23 12 NNE 0,0
17.09.2018 09:00:00 24,8 21,5 16 8 23 12 ENE 0,0
17.09.2018 08:00:00 24,3 22,0 13 7 20 11 SE -
17.09.2018 07:00:00 24,0 22,1 14 8 21 11 E 0,0
17.09.2018 06:00:00 24,3 22,7 18 10 23 13 NE 0,0
17.09.2018 05:00:00 24,4 22,8 16 9 20 11 N 0,0
17.09.2018 04:00:00 24,3 22,9 11 6 16 9 NE 0,0
17.09.2018 03:00:00 24,7 23,1 6 3 25 13 SSW 0,0
17.09.2018 02:00:00 24,8 23,0 21 11 27 14 WSW -
17.09.2018 01:00:00 24,6 22,7 10 6 19 10 SSE 0,0
17.09.2018 00:00:00 24,8 22,3 11 6 16 9 SSE 0,0
16.09.2018 23:00:00 25,0 22,5 7 4 16 9 SSW 0,0

tt = temperature
td = dewpoint
ff = wind speed
fx = gusts
dd = wind direction
rr = precipitation

Next stations